Time;durP1;ratioP1;P1;durP2;ratioP2;P2;SDS_P1;SDS_P2;PMS_P1;PMS_P2;Temp;Humidity;BMP_temperature;BMP_pressure;BME280_temperature;BME280_humidity;BME280_pressure;Samples;Min_cycle;Max_cycle;Signal;HPM_P1;HPM_P2
2023/10/31 00:14:29;;;;;;;31.30;18.50;;;;;;;13.29;100.00;99011.52;674399;1261;139523;-82
2023/10/31 00:29:34;;;;;;;33.20;19.80;;;;;;;13.09;100.00;98992.73;673455;1264;139275;-83
2023/10/31 00:44:37;;;;;;;48.80;23.90;;;;;;;13.14;100.00;98976.48;675877;1263;139289;-83
2023/10/31 00:59:41;;;;;;;34.10;19.70;;;;;;;13.30;100.00;98956.70;672884;1264;139448;-83
2023/10/31 01:14:45;;;;;;;33.50;19.90;;;;;;;13.47;100.00;98925.87;675114;1260;141487;-83
2023/10/31 01:29:49;;;;;;;34.50;19.50;;;;;;;13.67;100.00;98868.41;669071;1267;139574;-83
2023/10/31 01:44:52;;;;;;;34.70;18.80;;;;;;;14.09;100.00;98822.29;671381;1263;139715;-81
2023/10/31 01:59:56;;;;;;;27.90;16.60;;;;;;;14.40;100.00;98797.85;673399;1264;139951;-83
2023/10/31 02:14:59;;;;;;;26.40;16.10;;;;;;;14.63;100.00;98785.25;675884;1259;139810;-82
2023/10/31 02:30:03;;;;;;;30.10;16.60;;;;;;;14.37;100.00;98752.27;678992;1260;139592;-82
2023/10/31 02:45:07;;;;;;;26.20;16.50;;;;;;;14.32;100.00;98691.74;674521;1262;139224;-81
2023/10/31 03:00:11;;;;;;;26.70;16.70;;;;;;;14.18;100.00;98648.20;672726;1263;139184;-82
2023/10/31 03:15:15;;;;;;;32.20;17.10;;;;;;;14.15;100.00;98615.50;672627;1263;139760;-82
2023/10/31 03:30:19;;;;;;;24.80;14.70;;;;;;;14.33;100.00;98592.13;677262;1259;140222;-82
2023/10/31 03:45:22;;;;;;;30.60;16.60;;;;;;;14.57;100.00;98573.20;670094;1263;139829;-82
2023/10/31 04:00:26;;;;;;;22.00;13.10;;;;;;;14.70;100.00;98543.86;676547;1262;139720;-81
2023/10/31 04:15:29;;;;;;;24.30;13.80;;;;;;;14.67;100.00;98512.40;679866;1259;139261;-81
2023/10/31 04:30:33;;;;;;;25.00;12.50;;;;;;;14.61;100.00;98478.71;669428;1264;139000;-82
2023/10/31 04:45:36;;;;;;;20.00;12.10;;;;;;;14.54;100.00;98445.78;676903;1260;138912;-83
2023/10/31 05:00:40;;;;;;;24.70;12.80;;;;;;;14.41;100.00;98417.23;678660;1263;139919;-81
2023/10/31 05:15:43;;;;;;;23.50;12.80;;;;;;;14.33;100.00;98385.31;679832;1263;138952;-82
2023/10/31 05:30:47;;;;;;;23.00;12.60;;;;;;;14.27;100.00;98365.48;677144;1263;139852;-82
2023/10/31 05:45:50;;;;;;;29.90;17.40;;;;;;;14.36;100.00;98337.13;673353;1262;139289;-81
2023/10/31 06:00:54;;;;;;;17.50;10.90;;;;;;;14.54;100.00;98307.57;675233;1261;139877;-83
2023/10/31 06:15:58;;;;;;;63.00;34.20;;;;;;;14.77;100.00;98293.37;676874;1263;139084;-83
2023/10/31 06:31:04;;;;;;;21.00;10.20;;;;;;;14.83;100.00;98289.27;670889;1264;139519;-83
2023/10/31 06:46:08;;;;;;;22.20;12.00;;;;;;;14.87;100.00;98282.20;675408;1263;139942;-82
2023/10/31 07:01:13;;;;;;;25.60;12.80;;;;;;;15.23;100.00;98265.98;675531;1262;139656;-82
2023/10/31 07:16:17;;;;;;;44.80;20.70;;;;;;;15.52;100.00;98256.81;672894;1263;139385;-82
2023/10/31 07:31:21;;;;;;;12.80;6.80;;;;;;;16.08;100.00;98233.84;676231;1262;140276;-81
2023/10/31 07:46:25;;;;;;;11.40;5.40;;;;;;;16.55;99.35;98214.34;678037;1264;139193;-81
2023/10/31 08:01:28;;;;;;;12.50;5.50;;;;;;;16.98;96.91;98190.77;678401;1261;139148;-82
2023/10/31 08:16:32;;;;;;;14.20;10.90;;;;;;;17.50;94.91;98161.70;678529;1259;138785;-83
2023/10/31 08:31:35;;;;;;;9.90;5.30;;;;;;;17.96;92.60;98147.14;676643;1259;139466;-81
2023/10/31 08:46:39;;;;;;;50.20;16.40;;;;;;;18.25;90.85;98136.58;681344;1262;139289;-81
2023/10/31 09:01:42;;;;;;;10.40;6.60;;;;;;;18.41;89.64;98118.99;678760;1260;139795;-82
2023/10/31 09:16:45;;;;;;;10.70;4.30;;;;;;;18.42;89.65;98130.36;678538;1261;139809;-82
2023/10/31 09:31:50;;;;;;;8.70;4.30;;;;;;;18.59;89.62;98137.19;674381;1262;139157;-82
2023/10/31 09:46:57;;;;;;;8.90;4.90;;;;;;;18.43;91.62;98150.73;673769;1262;138327;-79
2023/10/31 10:02:00;;;;;;;8.10;4.30;;;;;;;17.69;99.36;98159.29;674689;1259;138758;-79
2023/10/31 10:17:15;;;;;;;12.00;4.70;;;;;;;17.25;100.00;98163.45;671994;1263;138709;-81
2023/10/31 10:32:19;;;;;;;12.10;5.80;;;;;;;16.60;100.00;98178.07;676195;1262;138686;-81
2023/10/31 10:47:23;;;;;;;9.30;5.60;;;;;;;16.35;100.00;98191.75;676833;1261;139903;-82
2023/10/31 11:02:29;;;;;;;10.40;6.70;;;;;;;16.42;100.00;98204.45;674068;1272;138843;-83
2023/10/31 11:17:37;;;;;;;12.20;7.50;;;;;;;16.53;100.00;98204.52;675552;1262;139003;-82
2023/10/31 11:32:48;;;;;;;13.80;8.60;;;;;;;16.85;100.00;98218.21;677274;1262;139390;-83
2023/10/31 11:47:51;;;;;;;9.90;8.00;;;;;;;16.57;100.00;98234.19;676017;1262;140239;-79
2023/10/31 12:02:59;;;;;;;11.80;9.30;;;;;;;16.38;100.00;98250.05;678548;1261;138868;-81
2023/10/31 12:18:03;;;;;;;12.40;9.40;;;;;;;16.40;100.00;98266.77;679905;1263;140037;-83
2023/10/31 12:33:07;;;;;;;11.40;9.20;;;;;;;16.37;100.00;98292.77;673673;1262;138681;-82
2023/10/31 12:48:12;;;;;;;22.30;13.10;;;;;;;16.20;100.00;98302.08;670626;1265;139310;-82
2023/10/31 13:03:15;;;;;;;15.30;8.60;;;;;;;16.22;100.00;98305.00;677935;1263;140410;-80
2023/10/31 13:18:19;;;;;;;9.50;7.40;;;;;;;16.21;100.00;98326.20;673205;1261;138891;-81
2023/10/31 13:33:22;;;;;;;6.70;4.90;;;;;;;16.27;100.00;98368.38;671935;1260;139496;-81
2023/10/31 13:48:26;;;;;;;8.80;4.80;;;;;;;16.38;100.00;98401.61;677225;1262;138861;-81
2023/10/31 14:03:29;;;;;;;7.30;3.60;;;;;;;16.36;100.00;98438.34;677171;1262;138802;-82
2023/10/31 14:18:33;;;;;;;6.70;4.40;;;;;;;16.32;100.00;98448.11;675690;1263;138798;-80
2023/10/31 14:33:37;;;;;;;10.60;5.50;;;;;;;16.23;100.00;98457.52;681143;1263;139154;-79
2023/10/31 14:48:40;;;;;;;7.40;4.70;;;;;;;16.17;100.00;98478.48;671751;1269;138696;-80
2023/10/31 15:03:44;;;;;;;19.70;11.70;;;;;;;16.01;100.00;98478.75;674472;1265;138848;-77
2023/10/31 15:18:48;;;;;;;12.40;7.60;;;;;;;16.02;100.00;98494.37;673785;1262;141289;-79
2023/10/31 15:33:51;;;;;;;6.30;4.50;;;;;;;15.97;100.00;98512.98;677171;1263;140543;-80
2023/10/31 15:48:54;;;;;;;6.20;4.30;;;;;;;15.76;100.00;98533.86;680548;1257;139629;-80
2023/10/31 16:03:58;;;;;;;4.00;3.00;;;;;;;15.10;100.00;98580.43;678374;1261;140056;-80
2023/10/31 16:19:02;;;;;;;27.50;18.00;;;;;;;14.84;100.00;98601.28;677862;1263;140021;-80
2023/10/31 16:34:06;;;;;;;65.20;31.50;;;;;;;14.67;99.21;98622.86;675785;1263;139376;-79
2023/10/31 16:49:10;;;;;;;20.90;10.40;;;;;;;14.45;96.62;98655.98;672848;1262;139584;-80
2023/10/31 17:04:13;;;;;;;8.60;4.00;;;;;;;14.34;94.71;98670.04;672386;1263;139258;-79
2023/10/31 17:19:17;;;;;;;9.90;5.80;;;;;;;14.28;94.44;98687.52;677142;1262;138658;-79
2023/10/31 17:34:21;;;;;;;8.40;5.90;;;;;;;14.17;93.48;98699.61;672136;1261;138831;-79
2023/10/31 17:49:24;;;;;;;4.90;3.40;;;;;;;14.11;92.98;98697.31;674060;1262;138556;-79
2023/10/31 18:04:28;;;;;;;14.00;5.70;;;;;;;13.97;92.95;98682.21;676288;1263;139552;-79
2023/10/31 18:19:31;;;;;;;21.60;18.00;;;;;;;13.71;94.79;98706.70;677529;1260;139494;-79
2023/10/31 18:34:35;;;;;;;11.00;6.10;;;;;;;13.68;95.98;98707.44;673785;1263;139579;-79
2023/10/31 18:49:39;;;;;;;13.00;6.80;;;;;;;13.94;96.01;98696.55;676592;1264;139078;-78
2023/10/31 19:04:42;;;;;;;10.10;6.30;;;;;;;14.05;96.60;98710.52;675021;1263;139516;-79
2023/10/31 19:19:46;;;;;;;14.20;6.30;;;;;;;14.17;96.65;98701.76;674166;1261;139210;-78
2023/10/31 19:34:50;;;;;;;12.80;5.90;;;;;;;14.13;96.33;98701.77;671415;1260;148001;-79
2023/10/31 19:49:54;;;;;;;7.10;3.50;;;;;;;14.17;95.35;98708.59;675882;1259;139887;-80
2023/10/31 20:04:58;;;;;;;6.20;3.80;;;;;;;14.34;93.18;98727.95;673278;1257;138904;-79
2023/10/31 20:20:01;;;;;;;5.10;3.00;;;;;;;14.41;91.84;98744.05;675833;1263;139656;-80
2023/10/31 20:35:06;;;;;;;8.00;3.20;;;;;;;14.37;90.63;98771.63;676282;1262;139869;-80
2023/10/31 20:50:10;;;;;;;5.10;2.40;;;;;;;14.33;89.94;98784.92;675773;1273;139099;-79
2023/10/31 21:05:14;;;;;;;4.90;3.00;;;;;;;14.23;91.74;98806.98;672094;1260;140079;-80
2023/10/31 21:20:17;;;;;;;4.00;2.40;;;;;;;13.46;98.76;98827.48;673637;1263;139298;-79
2023/10/31 21:35:21;;;;;;;4.10;2.00;;;;;;;13.00;100.00;98839.82;674818;1266;140057;-80
2023/10/31 21:50:24;;;;;;;5.70;2.60;;;;;;;12.89;100.00;98850.60;678280;1263;138997;-78
2023/10/31 22:05:28;;;;;;;4.80;2.40;;;;;;;12.88;100.00;98869.63;675221;1258;139232;-79
2023/10/31 22:20:31;;;;;;;3.80;2.00;;;;;;;12.83;100.00;98870.52;676592;1261;139872;-79
2023/10/31 22:35:35;;;;;;;2.50;1.30;;;;;;;12.73;99.28;98900.80;677482;1275;139656;-80
2023/10/31 22:50:38;;;;;;;3.10;1.10;;;;;;;12.76;96.26;98912.55;674094;1273;138729;-79
2023/10/31 23:05:43;;;;;;;2.70;1.60;;;;;;;12.64;93.65;98912.59;673068;1263;138992;-79
2023/10/31 23:20:47;;;;;;;5.90;1.90;;;;;;;12.58;92.04;98938.34;674333;1263;140614;-80
2023/10/31 23:35:51;;;;;;;4.70;2.00;;;;;;;12.47;91.66;98971.89;677290;1259;139702;-79
2023/10/31 23:50:54;;;;;;;4.60;1.60;;;;;;;12.27;91.85;99006.65;676090;1263;139890;-78
